Terminal Aerodrome Forecast
Issued by NWS Austin/San Antonio, TX

Current Version | Previous Version | Text Only | Print | Product List | Glossary Off
Versions: 1 2 3 4 5 6 7 8 9 10 11 12 13

351
FTUS44 KEWX 011124
TAFSAT
TAF
KSAT 011124Z 0112/0218 13006KT P6SM FEW250
     FM011900 13010KT P6SM SCT050
     FM020200 12008KT P6SM SCT250
     FM021000 15005KT P6SM OVC015
     FM021600 15005KT P6SM SCT040=

USA.gov is the U.S. government's official web portal to all federal, state and local government web resources and services.